Harrisonburg, VA (22802)

1:41 PM EST on February 06, 2016 (GMT -0500)
Vine Street | | Change Station
CLOSE
Current Station
Personal Weather Station
Location: Harrisonburg, VA
Elevation: 1445 ft
Nearby Weather Stations

Elev 1445 ft 38.45 °N, 78.85 °W | Updated 3 seconds ago

Clear
Clear
41.2 °F
Feels Like 32 °F
N
20.7
Wind Variable Wind from WSW
Gusts 20.7 mph

Today
High -- | Low -- °F
--% Chance of Precip.
Yesterday
High -- | Low -- °F
Precip. -- in
Pressure 30.31 in
Visibility 10.0 miles
Clouds Clear
Windchill 32 °F
Dew Point 10 °F
Humidity 27%
Rainfall 0.00 in
Snow Depth Not available.
7:16 AM 5:43 PM
Waning Crescent, 4% visible
METAR KSHD 061815Z AUTO 25010G16KT 10SM CLR 08/M09 A3031 RMK AO2 T00771088
Pressure 30.31 in
Visibility 10.0 miles
Clouds Clear
Windchill 32 °F
Dew Point 10 °F
Humidity 27%
Rainfall 0.00 in
Snow Depth Not available.
7:16 AM 5:43 PM
Waning Crescent, 4% visible
METAR KSHD 061815Z AUTO 25010G16KT 10SM CLR 08/M09 A3031 RMK AO2 T00771088

10-Day Weather Forecast

Almanac

Astronomy

Feb. 06, 2016 Rise Set
Actual Time
Civil Twilight
Nautical Twilight
Astronomical Twilight
Moon
Length of Visible Light
Length of Day
Tomorrow will be .
, % of the Moon is Illuminated

Today's Extremes

State Highs State Lows

Community

WunderPhotos

Upload Photos

1,891,033 photos uploaded!

WunderBlog® & News

Nearby

Air Quality

  Air Quality AQ Index Pollutant
Not available.

Snow Depth

Station Depth Elevation

Earthquake Activity

City Distance Mag. Time & Date
Minimum magnitude displayed is 2.5.

Coastal Water Temperatures

Place Temperature

Stations

Nearby Weather Stations

Station Location Temp. Windchill Dew Point Humidity Wind Precip. Elev Updated Type
                   

Watches & Warnings

There are currently no watches in effect.